Overview Statistics Trail Chart Weather Telemetry Raw packets
 

This is the latest recevied weather packets stored in our database for station/object IW1RCO-13. If no packets are shown the sender has not sent any weather packets the latest 10 day(s).

<< 32 33 34 35 36 37 38 >>
Time Temp. Humidity Pressure Rain* Wind** Luminosity Snow
1788416668 21.67° C 75% 1019.2 hPa - - - -
1788416371 21.11° C 77% 1019.5 hPa - - - -
1788416067 20.56° C 81% 1019.2 hPa - - - -
1788415771 20.56° C 81% 1018.6 hPa - - - -
1788415467 20° C 82% 1019.1 hPa - - - -
1788415170 20° C 82% 1018.9 hPa - - - -
1788414867 20.56° C 81% 1019.2 hPa - - - -
1788414570 20° C 81% 1019.5 hPa - - - -
1788414266 20° C 80% 1019.5 hPa - - - -
1788413970 20° C 81% 1019.2 hPa - - - -
1788413666 20° C 81% 1018.1 hPa - - - -
1788413370 20° C 82% 1019.1 hPa - - - -
1788413073 20° C 80% 1018.7 hPa - - - -
1788412769 20.56° C 79% 1019.5 hPa - - - -
1788412472 20.56° C 78% 1018.4 hPa - - - -
1788412169 20.56° C 78% 1019.2 hPa - - - -
1788411872 20.56° C 77% 1018.5 hPa - - - -
1788411569 21.11° C 76% 1018.5 hPa - - - -
1788410968 21.11° C 76% 1019.5 hPa - - - -
1788410672 21.11° C 76% 1019.1 hPa - - - -
1788410368 21.11° C 76% 1018.9 hPa - - - -
1788410071 21.11° C 76% 1019.2 hPa - - - -
1788409768 21.11° C 76% 1019.2 hPa - - - -
1788409471 21.11° C 77% 1018 hPa - - - -
1788409168 20.56° C 77% 1018.9 hPa - - - -

* Rain since midnight (hover to see other rain measurements)
** Current wind speed in m/s (hover to see current wind gust speed)